Time;durP1;ratioP1;P1;durP2;ratioP2;P2;SDS_P1;SDS_P2;PMS_P1;PMS_P2;Temp;Humidity;BMP_temperature;BMP_pressure;BME280_temperature;BME280_humidity;BME280_pressure;Samples;Min_cycle;Max_cycle;Signal;HPM_P1;HPM_P2
2023/07/06 00:00:49;;;;;;;5.47;2.20;;;;;;;15.79;84.81;99852.44;12193468;19;20780;-79
2023/07/06 00:04:54;;;;;;;5.22;2.03;;;;;;;15.75;85.75;99840.25;12207563;19;20133;-77
2023/07/06 00:08:55;;;;;;;4.18;2.30;;;;;;;15.73;85.61;99853.56;12214163;19;20417;-78
2023/07/06 00:13:01;;;;;;;8.70;2.45;;;;;;;15.70;86.04;99854.13;12190884;19;20022;-78
2023/07/06 00:17:12;;;;;;;4.80;2.10;;;;;;;15.73;87.88;99859.13;12207915;19;20464;-77
2023/07/06 00:21:14;;;;;;;9.50;2.88;;;;;;;15.75;88.00;99851.34;12189126;19;20007;-78
2023/07/06 00:25:16;;;;;;;5.22;2.15;;;;;;;15.75;87.10;99858.88;12212733;19;20019;-79
2023/07/06 00:29:17;;;;;;;4.50;1.75;;;;;;;15.75;87.59;99868.03;12212365;19;20912;-78
2023/07/06 00:33:21;;;;;;;9.38;2.58;;;;;;;15.73;88.52;99870.25;12187687;19;20007;-78
2023/07/06 00:37:23;;;;;;;4.93;2.05;;;;;;;15.70;89.43;99856.91;12211467;19;20010;-77
2023/07/06 00:41:25;;;;;;;4.37;2.40;;;;;;;15.68;90.30;99867.50;12209332;19;20027;-76
2023/07/06 00:45:27;;;;;;;7.32;2.13;;;;;;;15.62;91.62;99865.81;12189820;19;20067;-77
2023/07/06 00:49:29;;;;;;;6.00;1.98;;;;;;;15.58;91.68;99859.16;12211145;19;20074;-79
2023/07/06 00:53:35;;;;;;;8.10;2.17;;;;;;;15.52;91.23;99855.56;12210862;19;20428;-78
2023/07/06 00:57:39;;;;;;;3.92;2.00;;;;;;;15.53;91.19;99859.16;12187681;19;20027;-77
2023/07/06 01:01:45;;;;;;;8.00;2.10;;;;;;;15.51;91.74;99853.91;12210110;19;20020;-78
2023/07/06 01:05:51;;;;;;;3.88;2.15;;;;;;;15.47;92.14;99858.38;12209819;19;20006;-77
2023/07/06 01:09:53;;;;;;;3.97;2.00;;;;;;;15.44;92.97;99856.97;12188574;19;20006;-77
2023/07/06 01:13:57;;;;;;;4.93;2.22;;;;;;;15.46;92.52;99851.13;12207702;19;20010;-77
2023/07/06 01:18:26;;;;;;;4.63;2.20;;;;;;;15.50;93.03;99863.34;12210528;19;20744;-76
2023/07/06 01:22:55;;;;;;;4.93;2.25;;;;;;;15.59;92.91;99860.84;12183835;19;20062;-77
2023/07/06 01:27:24;;;;;;;6.43;2.33;;;;;;;15.64;92.82;99864.41;12209699;19;20013;-76
2023/07/06 01:31:26;;;;;;;4.72;2.33;;;;;;;15.65;92.95;99856.94;12187489;19;20006;-77
2023/07/06 01:35:43;;;;;;;6.68;2.10;;;;;;;15.65;93.44;99854.97;12207110;19;20086;-76
2023/07/06 01:39:45;;;;;;;5.28;2.15;;;;;;;15.65;92.88;99862.47;12187904;19;20027;-79
2023/07/06 01:43:47;;;;;;;4.20;2.17;;;;;;;15.65;92.22;99865.25;12205375;19;20019;-78
2023/07/06 01:47:57;;;;;;;4.88;2.28;;;;;;;15.68;91.98;99870.28;12207439;19;20023;-78
2023/07/06 01:52:18;;;;;;;5.60;2.30;;;;;;;15.69;91.58;99872.75;12185051;19;20007;-77
2023/07/06 01:56:28;;;;;;;4.50;2.30;;;;;;;15.72;91.58;99876.94;12205706;19;20368;-77
2023/07/06 02:00:32;;;;;;;5.07;1.98;;;;;;;15.76;91.28;99875.22;12186161;19;20010;-77
2023/07/06 02:04:37;;;;;;;5.13;2.40;;;;;;;15.79;89.54;99873.84;12201272;19;20011;-76
2023/07/06 02:08:41;;;;;;;7.57;2.47;;;;;;;15.81;89.54;99877.19;12206325;19;20467;-78
2023/07/06 02:12:47;;;;;;;6.50;2.15;;;;;;;15.82;89.97;99870.50;12184766;19;20042;-78
2023/07/06 02:16:50;;;;;;;6.55;2.42;;;;;;;15.79;90.51;99877.44;12207338;19;20018;-76
2023/07/06 02:20:53;;;;;;;5.72;2.17;;;;;;;15.75;90.49;99865.25;12208313;19;20519;-79
2023/07/06 02:24:55;;;;;;;9.18;2.10;;;;;;;15.71;90.75;99878.06;12183377;19;20090;-76
2023/07/06 02:28:57;;;;;;;6.90;2.55;;;;;;;15.64;91.19;99874.69;12202681;19;20093;-76
2023/07/06 02:32:59;;;;;;;4.38;2.25;;;;;;;15.58;91.69;99881.38;12205631;19;20007;-79
2023/07/06 02:37:01;;;;;;;3.27;2.13;;;;;;;15.53;92.33;99878.59;12181478;19;20387;-78
2023/07/06 02:41:04;;;;;;;4.00;2.50;;;;;;;15.49;92.86;99875.56;12204936;19;20023;-78
2023/07/06 02:45:06;;;;;;;;;;;;;;;15.39;93.29;99870.84;12205322;19;20015;-76
2023/07/06 02:49:08;;;;;;;6.30;2.25;;;;;;;15.35;93.83;99882.78;12185046;19;19918;-77
2023/07/06 02:53:09;;;;;;;6.15;2.33;;;;;;;15.30;93.65;99874.50;12204611;19;20012;-77
2023/07/06 02:57:11;;;;;;;6.53;1.92;;;;;;;15.26;94.48;99868.66;12215609;19;20238;-78
2023/07/06 03:01:15;;;;;;;3.85;2.17;;;;;;;15.22;95.38;99873.94;12195674;19;20007;-76
2023/07/06 03:05:22;;;;;;;4.05;2.38;;;;;;;15.19;96.29;99862.56;12216524;19;20366;-76
2023/07/06 03:09:25;;;;;;;4.68;2.47;;;;;;;15.13;96.25;99874.78;12195721;19;20596;-77
2023/07/06 03:13:28;;;;;;;6.63;2.10;;;;;;;15.04;96.50;99871.72;12218531;19;20035;-78
2023/07/06 03:17:30;;;;;;;4.22;1.98;;;;;;;14.94;96.92;99869.78;12216792;19;20022;-75
2023/07/06 03:21:33;;;;;;;4.72;2.50;;;;;;;14.86;97.58;99867.56;12191388;19;20007;-76
2023/07/06 03:25:35;;;;;;;5.95;2.88;;;;;;;14.81;98.20;99868.41;12215613;19;20020;-77
2023/07/06 03:29:37;;;;;;;5.10;2.05;;;;;;;14.74;98.57;99873.38;12213775;19;20430;-77
2023/07/06 03:33:40;;;;;;;6.22;2.60;;;;;;;14.69;100.00;99881.69;12194155;19;20039;-78
2023/07/06 03:37:43;;;;;;;5.10;2.30;;;;;;;14.62;100.00;99875.59;12213736;19;20014;-77
2023/07/06 03:41:45;;;;;;;4.82;2.40;;;;;;;14.53;100.00;99875.28;12212676;19;20011;-76
2023/07/06 03:45:48;;;;;;;5.80;2.85;;;;;;;14.48;100.00;99869.69;12195117;19;20017;-76
2023/07/06 03:49:51;;;;;;;5.00;2.47;;;;;;;14.42;100.00;99881.88;12216415;19;20007;-77
2023/07/06 03:53:52;;;;;;;5.32;2.55;;;;;;;14.38;100.00;99893.81;12216733;19;20010;-77
2023/07/06 03:57:57;;;;;;;4.18;2.20;;;;;;;14.31;100.00;99888.53;12191796;19;20077;-79
2023/07/06 04:02:06;;;;;;;4.28;2.45;;;;;;;14.26;100.00;99891.28;12215636;19;20392;-76
2023/07/06 04:06:08;;;;;;;4.13;2.30;;;;;;;14.24;100.00;99890.69;12211895;19;20024;-77
2023/07/06 04:10:12;;;;;;;8.27;3.10;;;;;;;14.25;100.00;99893.22;12194598;19;20031;-79
2023/07/06 04:14:15;;;;;;;7.25;3.08;;;;;;;14.27;100.00;99901.25;12214177;19;20024;-78
2023/07/06 04:18:16;;;;;;;7.30;2.85;;;;;;;14.31;100.00;99905.16;12216324;19;20006;-76
2023/07/06 04:22:18;;;;;;;7.03;3.58;;;;;;;14.31;100.00;99908.75;12191841;19;20007;-80
2023/07/06 04:26:21;;;;;;;6.82;3.22;;;;;;;14.33;100.00;99911.25;12212831;19;20007;-77
2023/07/06 04:30:23;;;;;;;6.15;3.33;;;;;;;14.34;100.00;99916.53;12190338;19;20007;-77
2023/07/06 04:34:25;;;;;;;7.80;2.90;;;;;;;14.34;100.00;99919.31;12213062;19;20014;-78
2023/07/06 04:38:29;;;;;;;5.70;3.00;;;;;;;14.33;100.00;99919.56;12211944;19;20002;-78
2023/07/06 04:42:31;;;;;;;7.45;3.00;;;;;;;14.31;100.00;99919.03;12194311;19;20002;-77
2023/07/06 04:46:33;;;;;;;7.97;3.20;;;;;;;14.31;100.00;99919.84;12214651;19;20027;-78
2023/07/06 04:50:37;;;;;;;5.85;2.75;;;;;;;14.32;100.00;99926.22;12217956;19;20444;-79
2023/07/06 04:54:39;;;;;;;7.85;3.13;;;;;;;14.34;100.00;99919.31;12191535;19;20010;-77
2023/07/06 04:58:44;;;;;;;5.20;2.50;;;;;;;14.39;100.00;99935.09;12210292;19;20010;-78
2023/07/06 05:02:47;;;;;;;5.95;2.97;;;;;;;14.44;100.00;99943.44;12211036;19;20010;-78
2023/07/06 05:06:49;;;;;;;8.63;3.37;;;;;;;14.49;100.00;99937.91;12190246;19;20034;-79
2023/07/06 05:10:52;;;;;;;7.47;2.92;;;;;;;14.54;100.00;99940.72;12211302;19;20006;-77
2023/07/06 05:14:54;;;;;;;5.93;2.97;;;;;;;14.60;100.00;99938.78;12211470;19;20025;-75
2023/07/06 05:18:55;;;;;;;9.25;2.78;;;;;;;14.68;100.00;99943.00;12187367;19;20003;-77
2023/07/06 05:22:58;;;;;;;6.53;3.15;;;;;;;14.82;100.00;99941.34;12210015;19;20014;-77
2023/07/06 05:26:59;;;;;;;5.10;2.70;;;;;;;14.99;100.00;99939.16;12209988;19;20018;-77
2023/07/06 05:31:03;;;;;;;5.30;3.20;;;;;;;15.08;100.00;99950.56;12187631;19;21088;-76
2023/07/06 05:35:06;;;;;;;5.00;2.80;;;;;;;15.13;100.00;99942.22;12203295;19;20014;-78
2023/07/06 05:39:08;;;;;;;6.80;2.92;;;;;;;15.19;100.00;99943.88;12201219;19;20475;-78
2023/07/06 05:43:10;;;;;;;7.40;2.90;;;;;;;15.24;100.00;99946.66;12172102;19;20082;-76
2023/07/06 05:47:16;;;;;;;4.55;2.65;;;;;;;15.31;100.00;99954.72;12217078;19;20014;-75
2023/07/06 05:51:29;;;;;;;5.40;2.83;;;;;;;15.38;100.00;99963.59;12264381;19;20010;-81
2023/07/06 06:00:18;;;;;;;4.28;2.53;;;;;;;15.61;98.64;99975.25;12268307;19;20024;-78
2023/07/06 06:04:25;;;;;;;8.20;2.40;;;;;;;15.72;97.50;99971.38;12193122;19;20023;-80
2023/07/06 06:08:28;;;;;;;6.75;2.17;;;;;;;15.80;96.20;99978.31;12213135;19;20017;-77
2023/07/06 06:12:31;;;;;;;5.10;2.17;;;;;;;15.85;95.27;99981.91;12190610;19;20345;-79
2023/07/06 06:16:34;;;;;;;8.32;2.50;;;;;;;16.04;94.49;99989.66;12210995;19;20390;-76
2023/07/06 06:20:37;;;;;;;5.57;2.45;;;;;;;16.18;93.58;99982.38;12210452;19;20010;-79
2023/07/06 06:24:40;;;;;;;4.90;2.25;;;;;;;16.35;92.68;99982.88;12186123;19;20010;-78
2023/07/06 06:28:42;;;;;;;5.20;2.45;;;;;;;16.46;91.70;99985.63;12199517;19;20036;-79
2023/07/06 06:32:44;;;;;;;6.10;2.40;;;;;;;16.58;90.28;99980.56;12203708;19;20019;-79
2023/07/06 06:36:46;;;;;;;4.70;1.97;;;;;;;16.72;89.59;99989.13;12188522;19;20019;-80
2023/07/06 06:40:49;;;;;;;;;;;;;;;16.85;87.91;99986.56;12209711;19;20018;-77
2023/07/06 06:44:51;;;;;;;8.23;2.13;;;;;;;17.06;86.96;99992.00;12210016;19;19927;-77
2023/07/06 06:48:53;;;;;;;5.25;2.00;;;;;;;17.23;85.26;99998.03;12186007;19;20060;-77
2023/07/06 06:52:55;;;;;;;4.13;2.10;;;;;;;17.46;85.07;99995.59;12208717;19;20007;-78
2023/07/06 06:56:57;;;;;;;5.73;2.00;;;;;;;17.74;84.21;99989.22;12207269;19;20007;-78
2023/07/06 07:01:03;;;;;;;7.23;2.13;;;;;;;18.04;82.65;99998.44;12188369;19;20023;-78
2023/07/06 07:05:09;;;;;;;6.80;2.42;;;;;;;18.25;80.81;99999.06;12207149;19;20014;-78
2023/07/06 07:09:13;;;;;;;5.93;1.67;;;;;;;18.48;77.95;99988.19;12210355;19;20443;-79
2023/07/06 07:13:17;;;;;;;7.88;1.95;;;;;;;18.70;75.49;99987.63;12187415;19;20026;-76
2023/07/06 07:17:19;;;;;;;6.23;2.50;;;;;;;18.93;74.73;99999.91;12205606;19;20433;-77
2023/07/06 07:21:21;;;;;;;4.55;1.98;;;;;;;19.06;73.99;99986.00;12209064;19;20007;-77
2023/07/06 07:25:27;;;;;;;6.70;1.80;;;;;;;19.33;72.09;99990.94;12184269;19;20027;-76
2023/07/06 07:29:32;;;;;;;5.88;1.50;;;;;;;19.43;69.29;99991.88;12205849;19;20006;-79
2023/07/06 07:33:34;;;;;;;3.20;1.65;;;;;;;19.47;68.72;99988.16;12185921;19;20015;-78
2023/07/06 07:37:36;;;;;;;5.22;1.70;;;;;;;19.62;67.24;99997.44;12205673;19;20003;-78
2023/07/06 07:41:42;;;;;;;3.10;1.30;;;;;;;19.76;64.90;99987.16;12213863;19;20007;-78
2023/07/06 07:45:45;;;;;;;4.28;1.60;;;;;;;19.99;61.40;99993.75;12197154;19;20064;-78
2023/07/06 07:49:49;;;;;;;6.75;1.75;;;;;;;20.13;60.74;99990.94;12219513;19;20007;-79
2023/07/06 07:53:53;;;;;;;5.07;1.85;;;;;;;20.47;60.73;99996.97;12213697;19;19999;-77
2023/07/06 07:57:56;;;;;;;8.95;2.20;;;;;;;20.79;59.74;99995.22;12194548;19;20014;-77
2023/07/06 08:01:58;;;;;;;3.83;1.90;;;;;;;20.93;58.63;99990.41;12217997;19;20034;-77
2023/07/06 08:06:05;;;;;;;;;;;;;;;20.53;58.30;99994.13;12218583;19;20042;-77
2023/07/06 08:10:08;;;;;;;8.30;1.77;;;;;;;20.66;58.47;99987.66;12196136;19;19907;-79
2023/07/06 08:14:11;;;;;;;4.65;1.77;;;;;;;20.96;57.30;99990.94;12219110;19;19999;-77
2023/07/06 08:18:13;;;;;;;;;;;;;;;21.35;56.63;99987.47;12223709;19;20062;-77
2023/07/06 08:22:17;;;;;;;5.37;2.27;;;;;;;21.71;54.46;99995.84;12192799;19;19971;-80
2023/07/06 08:26:19;;;;;;;5.32;1.92;;;;;;;22.10;53.65;99985.88;12215427;19;20266;-77
2023/07/06 08:30:21;;;;;;;5.32;1.85;;;;;;;22.17;53.09;99991.88;12216292;19;20131;-78
2023/07/06 08:34:26;;;;;;;5.70;1.50;;;;;;;22.11;50.80;99995.09;12194211;19;20073;-77
2023/07/06 08:38:28;;;;;;;4.30;1.77;;;;;;;22.52;51.58;99995.63;12215252;19;20090;-77
2023/07/06 08:42:31;;;;;;;5.40;2.17;;;;;;;22.87;49.68;99997.69;12194025;19;20354;-78
2023/07/06 08:46:40;;;;;;;3.85;1.20;;;;;;;22.98;48.06;99997.09;12215973;19;20011;-78
2023/07/06 08:50:51;;;;;;;4.50;1.90;;;;;;;22.74;47.73;99994.69;12231820;19;20003;-80
2023/07/06 08:54:54;;;;;;;4.18;1.58;;;;;;;23.10;46.22;99990.00;12196386;19;20021;-78
2023/07/06 08:58:59;;;;;;;4.43;1.40;;;;;;;23.63;44.93;100000.09;12220913;19;20015;-80
2023/07/06 09:03:07;;;;;;;5.47;1.55;;;;;;;23.64;44.39;99991.28;12216310;19;20020;-77
2023/07/06 09:07:15;;;;;;;5.75;1.77;;;;;;;23.40;42.89;99993.81;12192497;19;20080;-78
2023/07/06 09:11:17;;;;;;;4.05;1.42;;;;;;;22.95;44.69;99992.13;12215044;19;20003;-78
2023/07/06 09:15:28;;;;;;;6.35;1.55;;;;;;;23.41;44.83;99987.03;12205658;19;20066;-80
2023/07/06 09:19:32;;;;;;;5.78;2.13;;;;;;;23.57;42.42;99985.34;12213429;19;20015;-79
2023/07/06 09:23:34;;;;;;;6.32;1.48;;;;;;;23.48;43.64;99990.16;12212554;19;20042;-77
2023/07/06 09:27:37;;;;;;;2.97;1.50;;;;;;;23.37;42.54;99988.84;12190014;19;20013;-77
2023/07/06 09:31:40;;;;;;;5.80;1.83;;;;;;;23.19;43.04;99973.97;12212634;19;20006;-78
2023/07/06 09:35:43;;;;;;;7.07;1.63;;;;;;;23.57;40.67;99988.16;12211636;19;20017;-78
2023/07/06 09:40:00;;;;;;;4.53;1.63;;;;;;;23.66;39.65;99972.09;12191541;19;20396;-78
2023/07/06 09:44:05;;;;;;;4.05;1.48;;;;;;;23.70;40.55;99974.28;12211512;19;20011;-77
2023/07/06 09:48:21;;;;;;;5.70;1.75;;;;;;;23.95;38.38;99969.78;12219908;19;20007;-79
2023/07/06 09:52:25;;;;;;;4.43;1.55;;;;;;;24.33;38.26;99975.41;12189962;19;20014;-80
2023/07/06 09:56:29;;;;;;;3.45;1.50;;;;;;;24.49;38.06;99973.72;12209323;19;20344;-76
2023/07/06 10:00:39;;;;;;;8.27;1.90;;;;;;;24.24;37.76;99988.69;12192553;19;20014;-77
2023/07/06 10:04:59;;;;;;;3.38;1.48;;;;;;;24.71;37.42;99974.56;12213878;19;20011;-77
2023/07/06 10:09:23;;;;;;;4.78;1.63;;;;;;;25.33;36.72;99962.53;12205166;19;20031;-77
2023/07/06 10:13:39;;;;;;;2.97;1.42;;;;;;;25.59;35.98;99969.94;12187054;19;20011;-78
2023/07/06 10:17:50;;;;;;;5.00;1.58;;;;;;;25.61;36.08;99968.44;12212236;19;20476;-77
2023/07/06 10:22:20;;;;;;;6.50;1.67;;;;;;;25.74;36.02;99977.75;12190124;19;20010;-77
2023/07/06 10:26:34;;;;;;;5.18;1.40;;;;;;;25.56;35.40;99977.09;12212022;19;20007;-76
2023/07/06 10:30:45;;;;;;;8.05;1.95;;;;;;;25.68;35.63;99976.31;12189123;19;20006;-79
2023/07/06 10:35:01;;;;;;;4.70;1.50;;;;;;;25.03;36.47;99984.31;12212920;19;20011;-78
2023/07/06 10:39:26;;;;;;;2.70;1.48;;;;;;;24.61;37.04;99972.16;12210400;19;20018;-78
2023/07/06 10:43:28;;;;;;;3.78;1.98;;;;;;;24.88;36.35;99982.91;12186578;19;20143;-78
2023/07/06 10:47:44;;;;;;;4.35;1.98;;;;;;;24.81;36.54;99982.66;12212413;19;20002;-78
2023/07/06 10:51:57;;;;;;;6.78;1.50;;;;;;;25.49;36.04;99973.16;12188678;19;20074;-79
2023/07/06 10:56:02;;;;;;;4.28;1.80;;;;;;;26.48;34.47;99972.25;12204547;19;20086;-79
2023/07/06 11:00:14;;;;;;;3.72;1.60;;;;;;;26.48;33.88;99980.75;12209160;19;20011;-78
2023/07/06 11:04:39;;;;;;;4.45;1.73;;;;;;;25.87;34.00;99987.09;12186888;19;20479;-78
2023/07/06 11:09:09;;;;;;;3.78;1.67;;;;;;;26.02;34.26;99983.59;12209736;19;20011;-78
2023/07/06 11:13:16;;;;;;;5.00;1.85;;;;;;;26.37;33.58;99986.84;12186468;19;20006;-78
2023/07/06 11:17:33;;;;;;;6.10;1.73;;;;;;;26.58;33.11;99978.28;12219043;19;20010;-82
2023/07/06 11:21:59;;;;;;;7.10;1.80;;;;;;;26.81;32.61;99984.28;12200046;19;20031;-78
2023/07/06 11:26:13;;;;;;;3.28;1.70;;;;;;;26.27;33.22;99976.00;12218871;19;20071;-77
2023/07/06 11:30:22;;;;;;;5.43;1.80;;;;;;;26.90;33.17;99975.66;12218530;19;20007;-79
2023/07/06 11:34:30;;;;;;;4.95;1.52;;;;;;;27.63;32.43;99971.81;12198877;19;20010;-79
2023/07/06 11:38:44;;;;;;;4.57;1.58;;;;;;;28.13;30.90;99978.88;12219161;19;20003;-78
2023/07/06 11:43:14;;;;;;;3.20;1.52;;;;;;;27.56;30.49;99977.28;12196834;19;20010;-79
2023/07/06 11:47:34;;;;;;;3.10;1.50;;;;;;;26.93;31.06;99972.13;12219910;19;20019;-78
2023/07/06 11:51:39;;;;;;;3.10;1.40;;;;;;;26.33;32.20;99971.78;12198583;19;20377;-79
2023/07/06 11:55:51;;;;;;;5.40;1.58;;;;;;;26.20;32.74;99961.63;12217870;19;20024;-79
2023/07/06 12:00:16;;;;;;;3.17;1.70;;;;;;;26.56;31.68;99960.03;12220784;19;20426;-78
2023/07/06 12:04:26;;;;;;;5.00;1.60;;;;;;;26.13;32.35;99947.28;12197305;19;20486;-78
2023/07/06 12:08:35;;;;;;;4.20;1.70;;;;;;;26.43;32.19;99952.72;12226170;19;20022;-77
2023/07/06 12:12:38;;;;;;;4.78;1.92;;;;;;;26.97;30.79;99944.78;12196544;19;20017;-80
2023/07/06 12:16:41;;;;;;;4.82;1.88;;;;;;;27.18;30.31;99941.81;12218046;19;20006;-78
2023/07/06 12:20:43;;;;;;;;;;;;;;;27.77;29.77;99945.09;12218129;19;20010;-79
2023/07/06 12:24:46;;;;;;;2.65;1.52;;;;;;;28.55;29.56;99933.00;12199941;19;19914;-78
2023/07/06 12:28:49;;;;;;;4.47;1.73;;;;;;;29.60;28.26;99925.59;12214735;19;20017;-78
2023/07/06 12:32:56;;;;;;;4.63;1.90;;;;;;;29.03;27.37;99935.75;12219924;19;20022;-80
2023/07/06 12:37:02;;;;;;;4.65;1.70;;;;;;;28.24;29.13;99925.34;12193067;19;20019;-78
2023/07/06 12:41:19;;;;;;;3.63;1.70;;;;;;;29.71;27.57;99915.28;12217217;19;20345;-79
2023/07/06 12:45:23;;;;;;;3.25;1.83;;;;;;;31.53;26.16;99922.19;12217588;19;20010;-80
2023/07/06 12:49:26;;;;;;;4.25;2.08;;;;;;;32.19;25.20;99917.59;12199724;19;20047;-80
2023/07/06 12:53:33;;;;;;;5.47;2.15;;;;;;;33.31;23.49;99922.84;12219955;19;20003;-80
2023/07/06 12:57:36;;;;;;;4.47;1.88;;;;;;;34.10;23.53;99917.38;12195758;19;20039;-80
2023/07/06 13:01:45;;;;;;;5.10;1.88;;;;;;;34.69;22.18;99919.84;12218532;19;20029;-79
2023/07/06 13:05:54;;;;;;;6.30;2.00;;;;;;;34.99;21.54;99918.56;12220175;19;20126;-80
2023/07/06 13:09:57;;;;;;;3.83;2.28;;;;;;;35.96;20.43;99904.59;12194658;19;20011;-78
2023/07/06 13:14:06;;;;;;;4.65;2.10;;;;;;;36.80;20.13;99900.59;12210852;19;20011;-78
2023/07/06 13:18:15;;;;;;;2.80;2.05;;;;;;;36.46;19.22;99905.00;12264941;19;20007;-82
2023/07/06 13:22:22;;;;;;;2.88;1.70;;;;;;;34.75;21.00;99906.75;12242783;19;20002;-81
2023/07/06 13:26:26;;;;;;;4.05;2.00;;;;;;;32.31;23.11;99904.25;12261331;19;20038;-81
2023/07/06 13:30:28;;;;;;;4.82;2.13;;;;;;;32.44;23.72;99900.72;12195488;19;20024;-80
2023/07/06 13:34:31;;;;;;;4.30;1.88;;;;;;;34.60;21.84;99885.13;12211777;19;20007;-79
2023/07/06 13:38:33;;;;;;;3.67;1.70;;;;;;;36.11;19.79;99893.84;12215626;19;20022;-79
2023/07/06 13:42:35;;;;;;;5.18;2.88;;;;;;;34.72;21.07;99887.53;12191837;19;20010;-79
2023/07/06 13:46:38;;;;;;;4.85;2.20;;;;;;;34.02;21.55;99882.22;12213454;19;20015;-79
2023/07/06 13:50:45;;;;;;;2.60;1.77;;;;;;;36.04;19.70;99886.13;12217079;19;20006;-79
2023/07/06 13:54:48;;;;;;;4.53;2.10;;;;;;;37.66;18.78;99865.91;12191853;19;20381;-78
2023/07/06 13:58:50;;;;;;;4.13;1.85;;;;;;;38.56;17.65;99859.50;12207953;19;20412;-78
2023/07/06 14:02:54;;;;;;;3.08;1.90;;;;;;;39.07;16.75;99865.09;12211667;19;20338;-80
2023/07/06 14:06:58;;;;;;;3.80;1.88;;;;;;;39.80;16.39;99866.78;12190655;19;20006;-79
2023/07/06 14:11:01;;;;;;;3.85;1.98;;;;;;;39.71;16.33;99860.78;12211888;19;20010;-79
2023/07/06 14:15:04;;;;;;;3.58;2.13;;;;;;;40.10;16.43;99861.94;12213929;19;20006;-81
2023/07/06 14:19:06;;;;;;;6.03;2.17;;;;;;;39.89;15.73;99863.25;12191441;19;20017;-82
2023/07/06 14:23:12;;;;;;;4.82;1.70;;;;;;;39.56;15.81;99866.06;12210611;19;20079;-79
2023/07/06 14:27:15;;;;;;;3.03;1.67;;;;;;;38.77;16.56;99854.56;12209134;19;20042;-79
2023/07/06 14:31:17;;;;;;;4.65;2.10;;;;;;;40.01;15.65;99861.72;12190657;19;20468;-78
2023/07/06 14:35:19;;;;;;;6.22;2.33;;;;;;;41.40;15.33;99842.63;12215608;19;20478;-81
2023/07/06 14:39:21;;;;;;;6.00;2.05;;;;;;;41.89;14.32;99854.75;12219213;19;20044;-81
2023/07/06 14:43:23;;;;;;;3.90;1.90;;;;;;;41.75;14.55;99848.59;12201685;19;20027;-80
2023/07/06 14:47:25;;;;;;;4.15;1.98;;;;;;;42.41;14.19;99846.78;12215747;19;20006;-80
2023/07/06 14:51:27;;;;;;;3.90;2.00;;;;;;;42.89;13.56;99844.63;12199382;19;20472;-80
2023/07/06 14:55:29;;;;;;;4.63;1.88;;;;;;;42.31;13.66;99842.19;12218712;19;20020;-79
2023/07/06 14:59:34;;;;;;;2.33;1.75;;;;;;;40.50;14.87;99861.72;12219401;19;20030;-79
2023/07/06 15:03:36;;;;;;;3.78;1.85;;;;;;;40.24;15.14;99852.91;12204719;19;20013;-80
2023/07/06 15:07:39;;;;;;;2.63;2.00;;;;;;;39.50;16.03;99853.44;12228254;19;20408;-78
2023/07/06 15:11:41;;;;;;;5.50;2.38;;;;;;;39.53;15.08;99837.31;12223249;19;20767;-79
2023/07/06 15:15:43;;;;;;;3.35;1.90;;;;;;;40.46;14.84;99843.69;12200535;19;20027;-79
2023/07/06 15:19:45;;;;;;;4.85;1.70;;;;;;;41.50;13.97;99840.69;12225377;19;20015;-79
2023/07/06 15:23:48;;;;;;;3.53;2.08;;;;;;;39.32;15.76;99833.66;12220576;19;20095;-78
2023/07/06 15:27:50;;;;;;;6.53;2.25;;;;;;;36.16;17.66;99828.25;12194819;19;20102;-79
2023/07/06 15:31:52;;;;;;;3.13;1.77;;;;;;;33.96;19.39;99818.09;12248270;19;20026;-80
2023/07/06 15:35:55;;;;;;;3.22;2.22;;;;;;;32.33;20.36;99819.94;12231656;19;20011;-79
2023/07/06 15:39:58;;;;;;;5.32;1.92;;;;;;;31.12;21.61;99816.78;12201079;19;20018;-78
2023/07/06 15:44:01;;;;;;;3.78;1.92;;;;;;;30.02;22.22;99813.97;12222008;19;20011;-79
2023/07/06 15:48:06;;;;;;;4.63;1.85;;;;;;;29.13;22.99;99816.00;12219352;19;20091;-79
2023/07/06 15:52:08;;;;;;;;;;;;;;;28.40;23.41;99807.09;12202106;19;20007;-78
2023/07/06 15:56:10;;;;;;;4.22;1.77;;;;;;;28.36;24.02;99806.22;12220324;19;20360;-79
2023/07/06 16:00:12;;;;;;;5.50;2.00;;;;;;;28.30;24.11;99809.69;12212942;19;20007;-78
2023/07/06 16:04:14;;;;;;;4.40;1.90;;;;;;;28.04;24.40;99810.28;12188549;19;20021;-79
2023/07/06 16:08:16;;;;;;;5.18;1.90;;;;;;;27.77;24.84;99804.34;12217071;19;20015;-79
2023/07/06 16:12:21;;;;;;;3.42;1.52;;;;;;;27.71;25.24;99802.97;12210459;19;20027;-78
2023/07/06 16:16:23;;;;;;;6.18;2.08;;;;;;;27.76;25.28;99805.56;12190371;19;20011;-79
2023/07/06 16:20:25;;;;;;;3.75;1.38;;;;;;;27.61;25.01;99807.19;12216047;19;20094;-79
2023/07/06 16:24:27;;;;;;;4.03;1.88;;;;;;;27.41;25.43;99809.09;12189374;19;20382;-78
2023/07/06 16:28:29;;;;;;;6.55;1.75;;;;;;;27.45;25.51;99814.84;12212594;19;20079;-78
2023/07/06 16:32:31;;;;;;;3.08;1.55;;;;;;;27.30;25.43;99809.97;12215092;19;20015;-79
2023/07/06 16:36:33;;;;;;;5.32;2.03;;;;;;;27.10;26.00;99821.16;12190176;19;20014;-78
2023/07/06 16:40:34;;;;;;;4.95;1.85;;;;;;;26.86;26.59;99818.41;12217511;19;20170;-78
2023/07/06 16:44:36;;;;;;;3.08;1.92;;;;;;;26.65;26.57;99824.25;12214285;19;20086;-78
2023/07/06 16:48:38;;;;;;;3.65;1.50;;;;;;;26.42;26.40;99816.28;12193824;19;20010;-78
2023/07/06 16:52:40;;;;;;;4.18;1.83;;;;;;;26.39;26.59;99816.19;12212888;19;20014;-78
2023/07/06 16:56:41;;;;;;;5.97;2.03;;;;;;;26.31;27.28;99813.13;12209500;19;20006;-76
2023/07/06 17:00:44;;;;;;;6.63;1.77;;;;;;;26.24;27.10;99818.56;12189277;19;20624;-79
2023/07/06 17:04:46;;;;;;;4.13;1.70;;;;;;;26.24;27.23;99827.03;12213246;19;20263;-79
2023/07/06 17:08:47;;;;;;;3.85;1.67;;;;;;;26.15;27.38;99829.16;12212970;19;20032;-79
2023/07/06 17:12:51;;;;;;;4.88;2.08;;;;;;;26.02;27.30;99833.13;12186578;19;20027;-79
2023/07/06 17:16:53;;;;;;;4.55;1.80;;;;;;;25.92;27.58;99831.63;12211109;19;20027;-79
2023/07/06 17:21:05;;;;;;;7.90;1.98;;;;;;;25.89;27.80;99837.97;12216478;19;20002;-79
2023/07/06 17:25:07;;;;;;;3.40;1.60;;;;;;;25.83;27.70;99828.91;12188079;19;20472;-79
2023/07/06 17:29:08;;;;;;;3.17;1.92;;;;;;;25.81;26.91;99836.88;12209054;19;20035;-79
2023/07/06 17:33:10;;;;;;;5.03;1.90;;;;;;;25.66;27.46;99831.91;12213103;19;20472;-78
2023/07/06 17:37:12;;;;;;;4.55;1.98;;;;;;;25.60;27.47;99841.78;12188811;19;20468;-79
2023/07/06 17:41:14;;;;;;;4.30;1.75;;;;;;;25.63;27.66;99835.44;12209752;19;20031;-79
2023/07/06 17:45:16;;;;;;;3.80;1.97;;;;;;;25.52;27.87;99839.88;12211309;19;20011;-80
2023/07/06 17:49:18;;;;;;;5.40;1.90;;;;;;;25.41;27.80;99836.69;12190787;19;20260;-78
2023/07/06 17:53:20;;;;;;;3.60;1.70;;;;;;;25.28;27.73;99835.81;12208679;19;20051;-78
2023/07/06 17:57:22;;;;;;;;;;;;;;;25.17;27.99;99840.28;12208288;19;20739;-79
2023/07/06 18:01:24;;;;;;;3.08;1.67;;;;;;;25.13;27.89;99828.00;12208045;19;19937;-79
2023/07/06 18:05:26;;;;;;;4.05;1.70;;;;;;;25.09;28.28;99838.31;12215912;19;20017;-79
2023/07/06 18:09:30;;;;;;;4.90;2.05;;;;;;;25.05;29.05;99828.94;12196034;19;20014;-79
2023/07/06 18:13:33;;;;;;;3.28;1.83;;;;;;;24.95;28.88;99839.44;12211218;19;20049;-79
2023/07/06 18:17:35;;;;;;;6.95;1.90;;;;;;;24.86;29.31;99846.31;12208284;19;20006;-78
2023/07/06 18:21:36;;;;;;;4.32;1.67;;;;;;;24.72;29.37;99841.81;12189399;19;20007;-79
2023/07/06 18:25:39;;;;;;;3.20;1.80;;;;;;;24.64;29.76;99834.25;12205341;19;20023;-79
2023/07/06 18:29:46;;;;;;;4.53;1.95;;;;;;;24.52;30.16;99851.06;12209901;19;20027;-78
2023/07/06 18:33:48;;;;;;;4.13;1.85;;;;;;;24.45;30.27;99846.00;12186842;19;20019;-80
2023/07/06 18:37:49;;;;;;;3.77;1.87;;;;;;;24.39;30.32;99854.94;12210148;19;20035;-79
2023/07/06 18:41:51;;;;;;;4.43;1.50;;;;;;;24.18;31.34;99858.53;12208442;19;20385;-78
2023/07/06 18:45:54;;;;;;;5.40;2.03;;;;;;;23.93;31.84;99863.16;12182762;19;20064;-79
2023/07/06 18:49:56;;;;;;;4.55;1.92;;;;;;;23.67;33.05;99863.22;12207757;19;20010;-79
2023/07/06 18:53:58;;;;;;;;;;;;;;;23.36;33.45;99866.28;12206539;19;20015;-79
2023/07/06 18:58:01;;;;;;;2.25;1.52;;;;;;;23.08;34.95;99869.50;12182299;19;19922;-79
2023/07/06 19:02:04;;;;;;;3.63;1.65;;;;;;;22.84;35.99;99874.72;12200327;19;20609;-78
2023/07/06 19:06:08;;;;;;;3.90;1.90;;;;;;;22.57;36.61;99882.31;12202465;19;20769;-78